createdAt,value
2023-04-14T05:03:07.177Z,33.09
2023-04-14T05:04:08.048Z,33.08
2023-04-14T05:05:08.040Z,33.09
2023-04-14T05:06:08.067Z,33.11
2023-04-14T05:07:07.109Z,33.07
2023-04-14T05:08:08.139Z,33.07
2023-04-14T05:09:08.176Z,33.15
2023-04-14T05:10:08.214Z,33.13
2023-04-14T05:11:07.202Z,33.06
2023-04-14T05:12:08.191Z,33.12
2023-04-14T05:13:07.250Z,33.09
2023-04-14T05:14:07.311Z,33.07
2023-04-14T05:15:08.386Z,33.09
2023-04-14T05:16:08.465Z,33.09
2023-04-14T05:17:07.489Z,33.06
2023-04-14T05:18:08.562Z,33.12
2023-04-14T05:19:08.580Z,33.13
2023-04-14T05:20:08.649Z,33.10
2023-04-14T05:21:07.660Z,33.12
2023-04-14T05:22:07.702Z,33.08
2023-04-14T05:23:08.746Z,33.13
2023-04-14T05:24:07.788Z,33.07
2023-04-14T05:25:08.839Z,33.06
2023-04-14T05:26:31.274Z,33.09
2023-04-14T05:28:07.867Z,33.07
2023-04-14T05:29:08.864Z,33.06
2023-04-14T05:30:08.864Z,33.07
2023-04-14T05:31:08.864Z,33.06
2023-04-14T05:32:08.840Z,33.02
2023-04-14T05:33:07.872Z,33.11
2023-04-14T05:34:08.891Z,33.02
2023-04-14T05:35:07.839Z,33.06
2023-04-14T05:36:08.799Z,33.07
2023-04-14T05:37:08.814Z,33.12
2023-04-14T05:38:08.791Z,33.06
2023-04-14T05:39:08.804Z,33.04
2023-04-14T05:40:08.792Z,33.07
2023-04-14T05:41:08.795Z,33.07
2023-04-14T05:42:07.756Z,33.10
2023-04-14T05:43:08.754Z,33.06
2023-04-14T05:44:07.745Z,33.02
2023-04-14T05:45:07.742Z,33.07
2023-04-14T05:46:07.842Z,33.04
2023-04-14T05:47:07.746Z,33.08
2023-04-14T05:48:08.813Z,33.02
2023-04-14T05:49:07.728Z,33.04
2023-04-14T05:50:09.122Z,33.06
2023-04-14T05:51:07.713Z,33.02
2023-04-14T05:52:07.696Z,33.01
2023-04-14T05:53:08.733Z,33.06
2023-04-14T05:54:07.778Z,32.98
2023-04-14T05:55:07.816Z,32.99
2023-04-14T05:56:08.851Z,33.06
2023-04-14T05:57:08.884Z,33.02
2023-04-14T05:58:07.934Z,33.01
2023-04-14T05:59:07.955Z,33.00
2023-04-14T06:00:08.986Z,33.02
2023-04-14T06:01:09.102Z,32.94
2023-04-14T06:02:08.217Z,32.98
2023-04-14T06:03:09.291Z,32.94
2023-04-14T06:04:08.922Z,33.01
2023-04-14T06:05:09.283Z,33.00
2023-04-14T06:06:09.239Z,32.98
2023-04-14T06:07:08.317Z,32.94
2023-04-14T06:08:08.293Z,32.98
2023-04-14T06:09:08.312Z,32.97
2023-04-14T06:10:08.347Z,32.97
2023-04-14T06:11:09.365Z,32.97
2023-04-14T06:12:09.404Z,32.94
2023-04-14T06:13:09.436Z,32.94
2023-04-14T06:14:09.482Z,33.00
2023-04-14T06:15:09.502Z,32.94
2023-04-14T06:16:09.569Z,32.95
2023-04-14T06:17:09.586Z,32.92
2023-04-14T06:18:09.632Z,32.97
2023-04-14T06:19:09.642Z,32.92
2023-04-14T06:20:09.670Z,32.88
2023-04-14T06:21:09.716Z,32.89
2023-04-14T06:22:08.785Z,32.88
2023-04-14T06:23:09.763Z,32.89
2023-04-14T06:24:08.796Z,32.89
2023-04-14T06:25:08.836Z,32.94
2023-04-14T06:26:09.864Z,32.94
2023-04-14T06:27:08.902Z,32.90
2023-04-14T06:28:08.934Z,32.94
2023-04-14T06:29:09.952Z,32.88
2023-04-14T06:30:10.008Z,32.89
2023-04-14T06:31:10.034Z,32.89
2023-04-14T06:32:10.161Z,32.88
2023-04-14T06:33:10.105Z,32.87
2023-04-14T06:34:09.120Z,32.86
2023-04-14T06:35:16.464Z,32.91
2023-04-14T06:36:10.132Z,32.87
2023-04-14T06:37:10.121Z,32.82
2023-04-14T06:38:10.133Z,32.87
2023-04-14T06:39:09.112Z,32.85
2023-04-14T06:40:09.129Z,32.82
2023-04-14T06:41:10.098Z,32.82
2023-04-14T06:42:10.083Z,32.84
2023-04-14T06:43:09.073Z,32.82
2023-04-14T06:44:10.079Z,32.79
2023-04-14T06:45:10.094Z,32.82
2023-04-14T06:46:10.217Z,32.85
2023-04-14T06:47:09.051Z,32.79
2023-04-14T06:48:10.081Z,32.79
2023-04-14T06:49:09.032Z,32.84
2023-04-14T06:50:09.028Z,32.77
2023-04-14T06:51:10.015Z,32.75
2023-04-14T06:52:10.014Z,32.80
2023-04-14T06:53:09.003Z,32.75
2023-04-14T06:54:10.025Z,32.78
2023-04-14T06:55:10.027Z,32.75
2023-04-14T06:56:09.116Z,32.73
2023-04-14T06:57:10.104Z,32.76
2023-04-14T06:58:09.138Z,32.75
2023-04-14T06:59:10.157Z,32.76
2023-04-14T07:00:10.150Z,32.75
2023-04-14T07:01:10.240Z,32.71
2023-04-14T07:02:10.281Z,32.72
2023-04-14T07:03:10.312Z,32.81
2023-04-14T07:04:10.310Z,32.78
2023-04-14T07:05:10.402Z,32.72
2023-04-14T07:06:09.290Z,32.65
2023-04-14T07:07:10.310Z,32.75
2023-04-14T07:08:09.308Z,32.73
2023-04-14T07:09:09.350Z,32.70
2023-04-14T07:10:09.487Z,32.67
2023-04-14T07:11:10.410Z,32.67
2023-04-14T07:12:09.400Z,32.70
2023-04-14T07:13:10.416Z,32.70
2023-04-14T07:14:09.441Z,32.72
2023-04-14T07:15:10.466Z,32.67
2023-04-14T07:16:09.610Z,32.69
2023-04-14T07:17:09.500Z,32.67
2023-04-14T07:18:10.576Z,32.61
2023-04-14T07:19:10.534Z,32.64
2023-04-14T07:20:10.570Z,32.64
2023-04-14T07:21:09.585Z,32.62
2023-04-14T07:22:10.596Z,32.61
2023-04-14T07:23:09.605Z,32.61
2023-04-14T07:24:09.616Z,32.64
2023-04-14T07:25:09.644Z,32.64
2023-04-14T07:26:09.674Z,32.59
2023-04-14T07:27:09.661Z,32.66
2023-04-14T07:28:10.690Z,32.61
2023-04-14T07:29:10.702Z,32.65
2023-04-14T07:30:09.722Z,32.59
2023-04-14T07:31:09.873Z,32.63
2023-04-14T07:32:10.739Z,32.66
2023-04-14T07:33:09.801Z,32.64
2023-04-14T07:34:10.779Z,32.67
2023-04-14T07:35:09.792Z,32.67
2023-04-14T07:36:10.833Z,32.72
2023-04-14T07:37:10.834Z,32.67
2023-04-14T07:38:09.863Z,32.72
2023-04-14T07:39:10.883Z,32.64
2023-04-14T07:40:09.905Z,32.61
2023-04-14T07:41:09.928Z,32.64
2023-04-14T07:42:09.947Z,32.61
2023-04-14T07:43:10.943Z,32.64
2023-04-14T07:44:10.957Z,32.64
2023-04-14T07:45:10.975Z,32.62
2023-04-14T07:46:11.027Z,32.62
2023-04-14T07:47:10.998Z,32.63
2023-04-14T07:48:11.032Z,32.69
2023-04-14T07:49:11.042Z,32.77
2023-04-14T07:50:11.049Z,32.70
2023-04-14T07:51:11.128Z,32.87
2023-04-14T07:52:11.071Z,32.82
2023-04-14T07:53:11.099Z,32.84
2023-04-14T07:54:10.130Z,32.73
2023-04-14T07:55:11.144Z,33.38
2023-04-14T07:56:11.185Z,33.25
2023-04-14T07:57:10.215Z,33.06
2023-04-14T07:58:15.108Z,32.94
2023-04-14T07:59:11.227Z,32.91
2023-04-14T08:00:11.217Z,32.91
2023-04-14T08:01:11.210Z,32.88
2023-04-14T08:02:10.301Z,32.84
2023-04-14T08:03:11.477Z,32.84
2023-04-14T08:04:11.530Z,32.82
2023-04-14T08:05:11.217Z,32.72
2023-04-14T08:06:10.196Z,32.75
2023-04-14T08:07:10.183Z,32.79
2023-04-14T08:08:10.212Z,33.00
2023-04-14T08:09:11.161Z,33.41
2023-04-14T08:10:11.141Z,33.78
2023-04-14T08:11:11.144Z,33.69
2023-04-14T08:12:11.136Z,33.53
2023-04-14T08:13:11.124Z,33.86
2023-04-14T08:14:11.147Z,33.61
2023-04-14T08:15:10.127Z,33.63
2023-04-14T08:16:10.190Z,33.50
2023-04-14T08:17:11.103Z,32.88
2023-04-14T08:18:11.097Z,33.50
2023-04-14T08:19:11.096Z,33.55
2023-04-14T08:20:11.082Z,33.39
2023-04-14T08:21:11.084Z,33.13
2023-04-14T08:22:11.067Z,32.72
2023-04-14T08:23:10.079Z,32.93
2023-04-14T08:24:10.053Z,32.64
2023-04-14T08:25:11.056Z,32.84
2023-04-14T08:26:10.038Z,32.40
2023-04-14T08:27:11.057Z,32.86
2023-04-14T08:28:10.030Z,33.07
2023-04-14T08:29:11.037Z,33.00
2023-04-14T08:30:11.569Z,33.11
2023-04-14T08:31:11.186Z,32.95
2023-04-14T08:32:11.201Z,32.60
2023-04-14T08:33:11.266Z,32.09
2023-04-14T08:34:11.239Z,31.55
2023-04-14T08:35:39.930Z,30.98
2023-04-14T08:36:11.304Z,32.53
2023-04-14T08:37:10.270Z,32.49
2023-04-14T08:38:11.463Z,32.64
2023-04-14T08:39:10.274Z,32.39
2023-04-14T08:40:10.261Z,32.21
2023-04-14T08:41:10.227Z,32.80
2023-04-14T08:42:10.662Z,31.40
2023-04-14T08:43:13.839Z,31.55
2023-04-14T08:44:10.235Z,32.04
2023-04-14T08:45:11.206Z,32.31
2023-04-14T08:46:11.337Z,32.34
2023-04-14T08:47:11.185Z,32.39
2023-04-14T08:48:11.180Z,32.41
2023-04-14T08:49:11.290Z,32.40
2023-04-14T08:50:11.193Z,32.41
2023-04-14T08:51:11.276Z,32.35
2023-04-14T08:52:11.240Z,32.32
2023-04-14T08:53:10.265Z,32.09
2023-04-14T08:54:11.271Z,32.25
2023-04-14T08:55:10.280Z,32.33
2023-04-14T08:56:11.308Z,32.47
2023-04-14T08:57:11.297Z,32.79
2023-04-14T08:58:11.433Z,33.00
2023-04-14T08:59:11.391Z,32.99
2023-04-14T09:00:10.391Z,33.03
2023-04-14T09:01:11.779Z,32.96
2023-04-14T09:02:10.480Z,33.08
2023-04-14T09:03:11.647Z,34.21
2023-04-14T09:04:11.639Z,33.51
2023-04-14T09:05:11.391Z,33.91
2023-04-14T09:06:11.441Z,33.78
2023-04-14T09:07:11.424Z,33.73
2023-04-14T09:08:11.426Z,33.64
2023-04-14T09:09:11.427Z,33.62
2023-04-14T09:10:11.455Z,33.57
2023-04-14T09:11:11.491Z,33.98
2023-04-14T09:12:11.544Z,34.35
2023-04-14T09:13:10.596Z,34.34
2023-04-14T09:14:11.684Z,34.82
2023-04-14T09:15:11.759Z,34.41
2023-04-14T09:16:11.875Z,34.57
2023-04-14T09:17:12.017Z,34.54
2023-04-14T09:18:12.001Z,35.23
2023-04-14T09:19:10.949Z,35.48
2023-04-14T09:20:39.708Z,35.08
2023-04-14T09:21:30.394Z,35.01
2023-04-14T09:22:12.006Z,35.78
2023-04-14T09:23:11.164Z,35.96
2023-04-14T09:24:12.215Z,35.81
2023-04-14T09:25:11.964Z,35.63
2023-04-14T09:26:11.963Z,36.09
2023-04-14T09:27:11.953Z,35.96
2023-04-14T09:28:11.949Z,35.60
2023-04-14T09:29:10.949Z,36.24
2023-04-14T09:30:11.938Z,36.00
2023-04-14T09:31:12.086Z,36.22
2023-04-14T09:32:10.925Z,35.89
2023-04-14T09:33:11.945Z,36.44
2023-04-14T09:34:10.965Z,35.96
2023-04-14T09:35:11.897Z,36.18
2023-04-14T09:36:11.903Z,36.19
2023-04-14T09:37:11.901Z,36.29
2023-04-14T09:38:11.881Z,35.84
2023-04-14T09:39:10.884Z,36.79
2023-04-14T09:40:11.880Z,36.55
2023-04-14T09:41:11.870Z,36.28
2023-04-14T09:42:11.846Z,36.09
2023-04-14T09:43:11.838Z,35.96
2023-04-14T09:44:11.843Z,35.62
2023-04-14T09:45:10.818Z,35.91
2023-04-14T09:46:11.848Z,35.89
2023-04-14T09:47:12.170Z,35.89
2023-04-14T09:48:11.815Z,35.85
2023-04-14T09:49:11.822Z,36.24
2023-04-14T09:50:11.833Z,36.55
2023-04-14T09:51:11.807Z,36.63
2023-04-14T09:52:11.788Z,36.39
2023-04-14T09:53:10.795Z,36.31
2023-04-14T09:54:11.824Z,36.28
2023-04-14T09:55:11.917Z,36.52
2023-04-14T09:56:10.987Z,37.33
2023-04-14T09:57:11.191Z,36.53
2023-04-14T09:58:12.072Z,36.33
2023-04-14T09:59:12.129Z,36.37
2023-04-14T10:00:12.148Z,36.63
2023-04-14T10:01:12.202Z,36.45
2023-04-14T10:02:11.303Z,36.27
2023-04-14T10:03:12.297Z,36.55
2023-04-14T10:04:12.299Z,36.00
2023-04-14T10:05:12.341Z,35.51
2023-04-14T10:06:11.325Z,35.57
2023-04-14T10:07:11.397Z,35.08
2023-04-14T10:08:12.431Z,35.19
2023-04-14T10:09:12.484Z,35.12
2023-04-14T10:10:12.531Z,35.09
2023-04-14T10:11:11.602Z,35.61
2023-04-14T10:12:12.798Z,35.28
2023-04-14T10:13:12.716Z,34.81
2023-04-14T10:14:12.793Z,34.80
2023-04-14T10:15:11.816Z,35.59
2023-04-14T10:16:11.891Z,35.19
2023-04-14T10:17:12.888Z,35.19
2023-04-14T10:18:12.991Z,35.07
2023-04-14T10:19:13.022Z,34.92
2023-04-14T10:20:12.069Z,34.55
2023-04-14T10:21:12.155Z,34.45
2023-04-14T10:22:12.189Z,34.37
2023-04-14T10:23:12.196Z,34.46
2023-04-14T10:24:12.202Z,34.50
2023-04-14T10:25:12.240Z,34.51
2023-04-14T10:26:12.256Z,34.60
2023-04-14T10:27:12.291Z,34.60
2023-04-14T10:28:13.317Z,34.62
2023-04-14T10:29:12.323Z,34.45
2023-04-14T10:30:13.331Z,34.70
2023-04-14T10:31:13.380Z,34.54
2023-04-14T10:32:12.373Z,34.41
2023-04-14T10:33:13.391Z,34.38
2023-04-14T10:34:12.384Z,34.27
2023-04-14T10:35:13.392Z,34.28
2023-04-14T10:36:12.405Z,34.34
2023-04-14T10:37:13.469Z,34.02
2023-04-14T10:38:13.409Z,34.03
2023-04-14T10:39:13.404Z,33.92
2023-04-14T10:40:12.419Z,33.89
2023-04-14T10:41:12.460Z,33.80
2023-04-14T10:42:13.702Z,34.00
2023-04-14T10:43:13.456Z,34.04
2023-04-14T10:44:13.514Z,34.14
2023-04-14T10:45:13.500Z,34.12
2023-04-14T10:46:13.553Z,34.12
2023-04-14T10:47:13.581Z,34.24
2023-04-14T10:48:13.573Z,34.30
2023-04-14T10:49:13.604Z,34.25
2023-04-14T10:50:13.635Z,34.53
2023-04-14T10:51:13.650Z,34.42
2023-04-14T10:52:12.771Z,34.61
2023-04-14T10:53:12.754Z,34.29
2023-04-14T10:54:13.756Z,34.17
2023-04-14T10:55:13.784Z,34.17
2023-04-14T10:56:13.842Z,34.25
2023-04-14T10:57:13.874Z,34.04
2023-04-14T10:58:13.913Z,34.00
2023-04-14T10:59:13.973Z,33.90
2023-04-14T11:00:13.001Z,33.64
2023-04-14T11:01:14.094Z,33.65
2023-04-14T11:02:14.198Z,32.87
2023-04-14T11:03:13.574Z,33.93
2023-04-14T11:04:14.358Z,33.70
2023-04-14T11:05:14.258Z,33.58
2023-04-14T11:06:14.329Z,33.54
2023-04-14T11:07:13.367Z,33.62
2023-04-14T11:08:13.408Z,33.56
2023-04-14T11:09:14.476Z,33.75
2023-04-14T11:10:14.510Z,33.68
2023-04-14T11:11:14.555Z,33.71
2023-04-14T11:12:14.608Z,33.60
2023-04-14T11:13:14.228Z,32.97
2023-04-14T11:14:14.675Z,33.03
2023-04-14T11:15:14.726Z,32.65
2023-04-14T11:16:14.890Z,33.45
2023-04-14T11:17:13.880Z,33.49
2023-04-14T11:18:14.950Z,33.58
2023-04-14T11:19:14.974Z,33.53
2023-04-14T11:20:15.028Z,33.61
2023-04-14T11:21:15.083Z,33.58
2023-04-14T11:22:14.146Z,33.67
2023-04-14T11:23:15.200Z,33.55
2023-04-14T11:24:14.267Z,33.62
2023-04-14T11:25:14.424Z,33.44
2023-04-14T11:26:15.399Z,33.54
2023-04-14T11:27:14.484Z,33.60
2023-04-14T11:28:15.506Z,33.63
2023-04-14T11:29:14.580Z,33.89
2023-04-14T11:30:14.636Z,33.07
2023-04-14T11:31:15.642Z,32.68
2023-04-14T11:32:15.851Z,33.17
2023-04-14T11:33:15.788Z,33.25
2023-04-14T11:34:15.914Z,33.08
2023-04-14T11:35:14.815Z,33.27
2023-04-14T11:36:15.887Z,32.85
2023-04-14T11:37:15.238Z,32.47
2023-04-14T11:38:14.966Z,32.83
2023-04-14T11:39:16.031Z,32.48
2023-04-14T11:40:16.142Z,32.81
2023-04-14T11:41:16.083Z,32.79
2023-04-14T11:42:16.217Z,32.48
2023-04-14T11:43:15.178Z,32.67
2023-04-14T11:44:15.208Z,32.62
2023-04-14T11:45:16.235Z,32.55
2023-04-14T11:46:16.285Z,32.42
2023-04-14T11:47:15.279Z,32.62
2023-04-14T11:48:16.293Z,32.78
2023-04-14T11:49:16.321Z,32.54
2023-04-14T11:50:16.370Z,32.49
2023-04-14T11:51:16.379Z,32.61
2023-04-14T11:52:15.401Z,32.82
2023-04-14T11:53:16.447Z,32.79
2023-04-14T11:54:16.548Z,32.73
2023-04-14T11:55:16.526Z,32.60
2023-04-14T11:56:16.581Z,32.56
2023-04-14T11:57:16.558Z,32.53
2023-04-14T11:58:16.569Z,32.32
2023-04-14T11:59:16.601Z,32.37
2023-04-14T12:00:15.677Z,32.79
2023-04-14T12:01:15.591Z,32.35
2023-04-14T12:02:16.683Z,32.23
2023-04-14T12:03:15.835Z,32.20
2023-04-14T12:04:15.767Z,32.15
2023-04-14T12:05:16.600Z,32.05
2023-04-14T12:06:15.626Z,32.03
2023-04-14T12:07:15.624Z,32.04
2023-04-14T12:08:15.630Z,31.93
2023-04-14T12:09:16.620Z,31.92
2023-04-14T12:10:15.706Z,31.81
2023-04-14T12:11:16.644Z,32.80
2023-04-14T12:12:16.928Z,32.05
2023-04-14T12:13:15.704Z,31.88
2023-04-14T12:14:16.751Z,31.94
2023-04-14T12:15:16.801Z,32.03
2023-04-14T12:16:15.905Z,31.95
2023-04-14T12:17:16.946Z,31.87
2023-04-14T12:19:16.005Z,31.89
2023-04-14T12:20:17.111Z,31.93
2023-04-14T12:21:17.119Z,31.86
2023-04-14T12:22:16.185Z,31.84
2023-04-14T12:23:17.196Z,31.87
2023-04-14T12:24:17.265Z,31.87
2023-04-14T12:25:16.293Z,31.82
2023-04-14T12:26:17.331Z,31.93
2023-04-14T12:27:16.346Z,32.07
2023-04-14T12:28:16.373Z,31.93
2023-04-14T12:29:16.379Z,32.16
2023-04-14T12:30:17.373Z,32.21
2023-04-14T12:31:16.425Z,32.36
2023-04-14T12:32:17.398Z,32.48
2023-04-14T12:33:17.383Z,32.47
2023-04-14T12:34:17.405Z,32.47
2023-04-14T12:35:16.417Z,32.54
2023-04-14T12:36:17.396Z,32.50
2023-04-14T12:37:16.411Z,32.48
2023-04-14T12:38:16.438Z,32.42
2023-04-14T12:39:16.463Z,32.36
2023-04-14T12:40:17.437Z,32.40
2023-04-14T12:41:16.437Z,32.41
2023-04-14T12:42:16.445Z,32.40
2023-04-14T12:43:17.458Z,32.39
2023-04-14T12:44:17.534Z,32.35
2023-04-14T12:45:17.494Z,32.38
2023-04-14T12:46:17.531Z,32.36
2023-04-14T12:47:16.704Z,32.26
2023-04-14T12:48:16.596Z,32.30
2023-04-14T12:49:16.629Z,32.26
2023-04-14T12:50:17.696Z,32.21
2023-04-14T12:51:16.734Z,32.18
2023-04-14T12:52:16.764Z,32.14
2023-04-14T12:53:17.809Z,32.20
2023-04-14T12:54:17.845Z,32.06
2023-04-14T12:55:16.886Z,32.07
2023-04-14T12:56:17.938Z,31.99
2023-04-14T12:57:17.979Z,31.95
2023-04-14T12:58:17.023Z,31.98
2023-04-14T12:59:18.089Z,31.92
2023-04-14T13:00:18.184Z,31.84
2023-04-14T13:01:17.313Z,31.87
2023-04-14T13:02:18.325Z,31.89
2023-04-14T13:03:18.463Z,31.77
2023-04-14T13:04:17.498Z,31.74
2023-04-14T13:05:17.403Z,31.81
2023-04-14T13:06:17.484Z,31.71
2023-04-14T13:07:17.579Z,31.65
2023-04-14T13:08:17.586Z,31.66
2023-04-14T13:09:17.655Z,31.63
2023-04-14T13:10:18.731Z,31.60
2023-04-14T13:11:17.782Z,31.60
2023-04-14T13:12:18.862Z,31.58
2023-04-14T13:13:17.879Z,31.57
2023-04-14T13:14:18.933Z,31.57
2023-04-14T13:15:30.954Z,31.61
2023-04-14T13:16:20.602Z,31.51
2023-04-14T13:17:18.089Z,31.43
2023-04-14T13:18:19.073Z,31.48
2023-04-14T13:19:17.967Z,31.48
2023-04-14T13:20:17.949Z,31.49
2023-04-14T13:21:18.961Z,31.48
2023-04-14T13:22:18.934Z,31.38
2023-04-14T13:23:18.961Z,31.40
2023-04-14T13:24:17.943Z,31.34
2023-04-14T13:25:19.065Z,31.34
2023-04-14T13:26:17.909Z,31.34
2023-04-14T13:27:18.904Z,31.24
2023-04-14T13:28:18.898Z,31.34
2023-04-14T13:29:18.893Z,31.18
2023-04-14T13:30:17.904Z,31.18
2023-04-14T13:31:18.936Z,31.20
2023-04-14T13:32:18.967Z,31.17
2023-04-14T13:33:18.876Z,31.15
2023-04-14T13:34:18.853Z,31.17
2023-04-14T13:35:17.861Z,31.09
2023-04-14T13:36:18.849Z,31.12
2023-04-14T13:37:17.832Z,31.05
2023-04-14T13:38:17.838Z,31.03
2023-04-14T13:39:17.814Z,31.09
2023-04-14T13:40:18.822Z,31.07
2023-04-14T13:41:18.812Z,31.07
2023-04-14T13:42:18.821Z,30.94
2023-04-14T13:43:17.883Z,30.92
2023-04-14T13:44:18.903Z,30.89
2023-04-14T13:45:18.953Z,30.98
2023-04-14T13:46:19.202Z,30.83
2023-04-14T13:47:18.043Z,30.92
2023-04-14T13:48:19.120Z,30.86
2023-04-14T13:49:19.135Z,30.77
2023-04-14T13:50:19.205Z,30.74
2023-04-14T13:51:18.251Z,30.75
2023-04-14T13:52:18.294Z,30.77
2023-04-14T13:53:19.332Z,30.74
2023-04-14T13:54:18.383Z,30.69
2023-04-14T13:55:19.432Z,30.64
2023-04-14T13:56:19.457Z,30.66
2023-04-14T13:57:19.520Z,30.56
2023-04-14T13:58:19.581Z,30.64
2023-04-14T13:59:19.658Z,30.60
2023-04-14T14:00:19.704Z,30.71
2023-04-14T14:01:19.809Z,30.56
2023-04-14T14:02:18.972Z,30.58
2023-04-14T14:03:20.006Z,30.44
2023-04-14T14:04:20.073Z,30.59
2023-04-14T14:05:20.037Z,30.46
2023-04-14T14:06:19.101Z,30.43
2023-04-14T14:07:20.138Z,30.40
2023-04-14T14:08:19.214Z,30.48
2023-04-14T14:09:19.264Z,30.46
2023-04-14T14:10:20.322Z,30.09
2023-04-14T14:11:19.357Z,30.25
2023-04-14T14:12:19.395Z,30.38
2023-04-14T14:13:20.511Z,30.30
2023-04-14T14:14:20.419Z,30.39
2023-04-14T14:15:19.438Z,30.42
2023-04-14T14:16:35.556Z,30.37
2023-04-14T14:17:20.449Z,29.87
2023-04-14T14:18:20.412Z,30.13
2023-04-14T14:19:20.429Z,30.15
2023-04-14T14:20:20.302Z,29.69
2023-04-14T14:21:20.395Z,29.54
2023-04-14T14:22:20.385Z,29.66
2023-04-14T14:23:19.389Z,30.29
2023-04-14T14:24:19.371Z,30.24
2023-04-14T14:25:21.290Z,30.31
2023-04-14T14:26:20.373Z,30.68
2023-04-14T14:27:19.362Z,30.43
2023-04-14T14:28:20.368Z,30.75
2023-04-14T14:29:19.342Z,30.61
2023-04-14T14:30:20.339Z,30.35
2023-04-14T14:31:20.352Z,30.62
2023-04-14T14:32:20.386Z,30.86
2023-04-14T14:33:20.320Z,30.70
2023-04-14T14:34:20.310Z,30.82
2023-04-14T14:35:20.313Z,30.78
2023-04-14T14:36:20.346Z,30.71
2023-04-14T14:37:19.327Z,30.57
2023-04-14T14:38:20.375Z,30.56
2023-04-14T14:39:19.395Z,30.57
2023-04-14T14:40:20.409Z,30.49
2023-04-14T14:41:20.396Z,30.41
2023-04-14T14:42:20.419Z,30.41
2023-04-14T14:43:20.485Z,30.21
2023-04-14T14:44:20.548Z,30.09
2023-04-14T14:45:22.275Z,30.04
2023-04-14T14:46:20.645Z,30.01
2023-04-14T14:47:20.616Z,30.03
2023-04-14T14:48:19.591Z,29.98
2023-04-14T14:49:20.586Z,29.88
2023-04-14T14:50:20.584Z,29.93
2023-04-14T14:51:20.574Z,29.89
2023-04-14T14:52:20.604Z,29.93
2023-04-14T14:53:20.513Z,29.83
2023-04-14T14:54:19.497Z,29.84
2023-04-14T14:55:20.499Z,29.90
2023-04-14T14:56:20.500Z,29.85
2023-04-14T14:57:19.489Z,29.88
2023-04-14T14:58:20.468Z,29.90
2023-04-14T14:59:20.475Z,29.96
2023-04-14T15:00:20.456Z,29.92
2023-04-14T15:01:19.465Z,29.90
2023-04-14T15:02:19.530Z,29.92
2023-04-14T15:03:19.925Z,29.91
2023-04-14T15:04:19.522Z,29.97
2023-04-14T15:05:19.425Z,29.98
2023-04-14T15:06:19.420Z,29.95
2023-04-14T15:07:19.405Z,30.02
2023-04-14T15:08:19.435Z,30.04
2023-04-14T15:09:20.396Z,30.03
2023-04-14T15:10:19.402Z,30.03
2023-04-14T15:11:20.399Z,30.03
2023-04-14T15:12:19.420Z,30.09
2023-04-14T15:13:20.388Z,30.07
2023-04-14T15:14:20.381Z,30.14
2023-04-14T15:15:20.397Z,30.17
2023-04-14T15:16:20.464Z,30.09
2023-04-14T15:17:20.374Z,30.15
2023-04-14T15:18:19.374Z,30.18
2023-04-14T15:19:19.379Z,30.26
2023-04-14T15:20:19.431Z,30.24
2023-04-14T15:21:20.447Z,30.23
2023-04-14T15:22:20.486Z,30.34
2023-04-14T15:23:19.514Z,30.29
2023-04-14T15:24:20.574Z,30.26
2023-04-14T15:25:20.584Z,30.38
2023-04-14T15:26:20.608Z,30.40
2023-04-14T15:27:19.653Z,30.32
2023-04-14T15:28:20.688Z,30.33
2023-04-14T15:29:20.709Z,30.43
